Station: Mangalore  

  Atmospheric Gas Attenuation - ITU Rec 676-11   ----------------- dB/100km -----------------
Date Time Temp RH % AH g/m3 Dew Point Wind Direction Speed kph Gust kph Barometer mB Rainfall Since 9am 24GHz 47GHz 76GHz 122GHz 134GHz 241GHz
08/05 12:30 16 63 8.58 9 22 33 1022.8 0 19.4 25.6 39.1 102.4 96.2 330.9
08/05 12:20 15.5 65 8.59 9 26 30 1022.9 0 19.5 25.7 39.3 103.1 96.9 333.4
08/05 12:10 15.6 64 8.51 8.8 26 37 1022.9 0 19.3 25.6 39.0 102.1 95.8 329.4
08/05 12:00 16.2 64 8.83 9.4 24 39 1022.9 0 20.0 25.9 39.9 104.7 99.2 341.3
08/05 11:50 15.6 64 8.51 8.8 28 32 1022.9 0 19.3 25.6 39.0 102.1 95.8 329.4
08/05 11:40 15.8 65 8.75 9.2 28 30 1023 0 19.8 25.9 39.8 104.4 98.6 339.5
08/05 11:30 15.7 65 8.7 9.1 26 37 1023.1 0 19.7 25.9 39.7 104.0 98.1 337.6
08/05 11:20 15.8 64 8.61 9 24 28 1023 0 19.5 25.7 39.3 102.9 96.8 333.1
08/05 11:10 15.4 65 8.54 8.9 20 26 1022.9 0 19.4 25.7 39.2 102.7 96.4 331.6
08/05 11:00 15.3 65 8.49 8.8 26 46 1023 0 19.3 25.6 39.0 102.3 95.9 329.7
08/05 10:50 15.3 67 8.75 9.2 20 28 1023 0 19.8 26.1 40.1 105.1 99.3 341.6
08/05 10:40 15.5 68 8.99 9.6 22 32 1022.8 0 20.3 26.4 40.9 107.3 102.1 351.7
08/05 10:30 15.3 69 9.01 9.7 24 39 1022.7 0 20.4 26.5 41.1 107.8 102.7 353.5
08/05 10:20 15.3 71 9.27 10.1 26 32 1022.6 0 20.9 26.9 42.1 110.6 106.1 365.6
08/05 10:10 15.2 71 9.22 10 17 20 1022.6 0 20.8 26.8 42.0 110.2 105.6 363.7
08/05 10:00 14.4 73 9.02 9.6 24 35 1022.7 0 20.4 26.8 41.6 109.2 104.0 358.0
08/05 09:50 14.2 74 9.04 9.6 20 26 1022.9 0 20.5 26.9 41.8 109.7 104.5 359.9
08/05 09:40 13.9 78 9.35 10.1 15 17 1022.9 0 21.2 27.5 43.2 113.5 109.2 376.0
08/05 09:30 13.7 78 9.24 9.9 11 19 1022.9 0 21.0 27.3 42.9 112.6 107.9 371.8
08/05 09:20 13.3 80 9.24 9.9 9 13 1022.9 0 21.0 27.5 43.1 113.2 108.5 373.7
08/05 09:10 12.8 82 9.19 9.8 0 0 1023 0 20.9 27.5 43.2 113.3 108.5 373.7
08/05 09:00 12.6 83 9.18 9.8 2 6 1022.9 0 20.9 27.6 43.3 113.5 108.7 374.1
08/05 08:50 12.4 84 9.18 9.8 2 4 1022.8 0 20.9 27.6 43.4 113.8 108.9 375.1
08/05 08:40 12.2 85 9.17 9.8 6 7 1022.7 0 20.9 27.7 43.4 114.0 109.1 375.5
08/05 08:30 11.9 85 9 9.5 9 11 1022.5 0 20.5 27.5 42.9 112.5 107.1 368.6
08/05 08:20 11.7 86 9 9.4 9 9 1022.3 0 20.5 27.5 43.0 112.7 107.4 369.5
08/05 08:10 11.5 87 8.99 9.4 4 7 1022.2 0 20.5 27.6 43.0 112.9 107.5 370.0
08/05 08:00 11.3 87 8.88 9.2 7 9 1022.1 0 20.3 27.5 42.7 111.9 106.3 365.5
08/05 07:50 11.3 87 8.88 9.2 9 9 1022 0 20.3 27.4 42.7 111.9 106.2 365.5
08/05 07:40 11.1 87 8.76 9 9 11 1021.8 0 20.1 27.3 42.2 110.8 104.8 360.6
08/05 07:30 11 87 8.71 8.9 11 15 1021.8 0 20.0 27.2 42.1 110.4 104.3 358.6
08/05 07:20 10.9 86 8.56 8.7 11 13 1021.7 0 19.6 27.0 41.5 108.9 102.3 351.8
08/05 07:10 10.8 86 8.5 8.6 13 15 1021.5 0 19.5 26.9 41.3 108.3 101.6 349.3
08/05 07:00 10.9 85 8.46 8.5 15 17 1021.5 0 19.4 26.8 41.1 107.7 100.9 346.9
08/05 06:50 11 85 8.51 8.6 15 15 1021.4 0 19.5 26.9 41.2 108.1 101.5 348.8
08/05 06:40 11.1 84 8.46 8.5 17 19 1021.4 0 19.4 26.8 41.0 107.4 100.7 346.0
08/05 06:30 11.2 84 8.52 8.6 15 20 1021.4 0 19.5 26.8 41.2 108.0 101.4 348.4
08/05 06:20 11.2 84 8.52 8.6 13 17 1021.4 0 19.5 26.8 41.2 108.0 101.4 348.4
08/05 06:10 11.4 84 8.62 8.8 13 15 1021.4 0 19.7 27.0 41.5 108.8 102.5 352.3
08/05 06:00 11.5 84 8.68 8.9 15 20 1021.4 0 19.9 27.0 41.7 109.3 103.2 354.7
08/05 05:50 11.6 84 8.73 9 17 19 1021.4 0 20.0 27.1 41.8 109.7 103.7 356.7
08/05 05:40 11.6 84 8.73 9 15 19 1021.3 0 20.0 27.1 41.8 109.7 103.7 356.7
08/05 05:30 11.5 83 8.57 8.7 17 22 1021.3 0 19.6 26.8 41.2 108.1 101.6 349.4
08/05 05:20 11.5 83 8.57 8.7 15 17 1021.3 0 19.6 26.8 41.2 108.1 101.6 349.4
08/05 05:10 11.4 84 8.62 8.8 13 17 1021.1 0 19.7 26.9 41.5 108.8 102.4 352.2
08/05 05:00 11.3 83 8.47 8.5 13 20 1021 0 19.4 26.7 40.9 107.2 100.5 345.4
08/05 04:50 11.2 84 8.52 8.6 15 17 1021 0 19.5 26.8 41.2 107.9 101.3 348.3
08/05 04:40 11.1 84 8.46 8.5 13 17 1020.9 0 19.4 26.8 40.9 107.4 100.6 345.8
08/05 04:30 11.1 83 8.36 8.3 15 20 1020.9 0 19.2 26.6 40.5 106.3 99.3 341.0
08/05 04:20 11.2 82 8.31 8.2 19 20 1020.8 0 19.1 26.5 40.3 105.6 98.4 338.2
08/05 04:10 11.2 82 8.31 8.2 17 20 1020.7 0 19.1 26.5 40.3 105.6 98.4 338.2
08/05 04:00 11.1 83 8.36 8.3 20 26 1020.7 0 19.2 26.6 40.5 106.2 99.2 341.0
08/05 03:50 11 83 8.31 8.2 20 26 1020.7 0 19.1 26.5 40.4 105.8 98.7 339.0
08/05 03:40 10.6 84 8.2 8 17 20 1020.6 0 18.9 26.5 40.1 105.1 97.7 335.5
08/05 03:30 10.3 86 8.24 8.1 15 20 1020.7 0 19.0 26.6 40.4 106.0 98.6 338.7
08/05 03:20 9.9 86 8.03 7.7 11 13 1020.7 0 18.5 26.4 39.8 104.2 96.2 330.3
08/05 03:10 9.8 86 7.98 7.6 15 15 1020.7 0 18.4 26.3 39.6 103.8 95.7 328.3
08/05 03:00 9.5 86 7.83 7.3 13 17 1020.8 0 18.1 26.2 39.1 102.5 94.0 322.4
08/05 02:50 9.5 85 7.74 7.1 13 15 1020.8 0 17.9 26.0 38.8 101.5 92.8 318.1
08/05 02:40 9.6 84 7.7 7 13 15 1020.9 0 17.9 25.9 38.5 101.0 92.1 315.8
08/05 02:30 10 82 7.71 7.1 15 19 1020.9 0 17.9 25.8 38.4 100.6 91.8 314.7
08/05 02:20 10.3 81 7.76 7.2 15 17 1021 0 17.9 25.8 38.5 100.7 92.1 315.9
08/05 02:10 10.8 78 7.71 7.1 17 20 1021.1 0 17.8 25.6 38.0 99.6 90.8 311.6
08/05 02:00 11.1 78 7.86 7.4 19 24 1021.2 0 18.1 25.8 38.5 100.8 92.5 317.4
08/05 01:50 11.2 77 7.81 7.3 20 22 1021.1 0 18.0 25.7 38.2 100.1 91.7 314.6
08/05 01:40 11 78 7.81 7.3 24 30 1021.2 0 18.0 25.7 38.3 100.4 92.0 315.5
08/05 01:30 10.8 78 7.71 7.1 20 30 1021.2 0 17.8 25.6 38.0 99.6 90.9 311.6
08/05 01:20 10.6 80 7.81 7.3 19 20 1021.4 0 18.0 25.8 38.5 100.9 92.5 317.1
08/05 01:10 10.2 80 7.61 6.9 17 20 1021.5 0 17.6 25.6 37.9 99.3 90.2 309.3
08/05 01:00 10.5 79 7.66 7 19 22 1021.5 0 17.7 25.6 38.0 99.4 90.6 310.5
08/05 00:50 10.5 79 7.66 7 19 22 1021.6 0 17.7 25.6 38.0 99.4 90.6 310.5
08/05 00:40 10.4 79 7.62 6.9 20 22 1021.7 0 17.6 25.6 37.9 99.1 90.2 309.1
08/05 00:30 10.5 79 7.66 7 19 24 1021.7 0 17.7 25.6 38.0 99.5 90.6 310.6
08/05 00:20 10.5 78 7.57 6.8 19 20 1021.7 0 17.5 25.5 37.6 98.5 89.4 306.3
08/05 00:10 10.5 79 7.66 7 24 26 1021.8 0 17.7 25.6 38.0 99.5 90.6 310.6
08/05 00:00 10.4 79 7.62 6.9 20 26 1022 0 17.6 25.6 37.9 99.2 90.2 309.1
07/05 23:50 10.4 78 7.52 6.7 20 24 1022.2 0 17.4 25.5 37.5 98.1 88.9 304.5
07/05 23:40 10.4 78 7.52 6.7 17 20 1022.3 0 17.4 25.5 37.5 98.1 88.9 304.5
07/05 23:30 10.3 78 7.47 6.6 20 28 1022.3 0 17.3 25.4 37.3 97.7 88.3 302.6
07/05 23:20 10.1 77 7.28 6.3 24 24 1022.3 0 16.9 25.2 36.7 95.9 86.0 294.5
07/05 23:10 10 76 7.14 6 17 20 1022.3 0 16.6 25.0 36.1 94.5 84.2 288.3
07/05 23:00 10.3 75 7.18 6.1 22 28 1022.4 0 16.7 24.9 36.2 94.6 84.5 289.1
07/05 22:50 10.4 75 7.23 6.2 17 19 1022.7 0 16.8 25.0 36.3 95.0 85.0 291.1
07/05 22:40 10.4 74 7.13 6 20 24 1022.8 0 16.6 24.8 35.9 94.0 83.7 286.5
07/05 22:30 10.5 74 7.18 6.1 19 26 1022.9 0 16.7 24.9 36.1 94.4 84.3 288.5
07/05 22:20 10.4 74 7.13 6 17 19 1022.9 0 16.6 24.8 35.9 94.0 83.7 286.5
07/05 22:10 10.4 74 7.13 6 20 24 1022.9 0 16.6 24.8 35.9 94.0 83.7 286.5
07/05 22:00 10.4 73 7.04 5.8 19 24 1022.9 0 16.4 24.7 35.6 93.0 82.5 282.4
07/05 21:50 10.4 72 6.94 5.6 15 17 1023 0 16.2 24.5 35.2 92.0 81.2 277.8
07/05 21:40 10.5 71 6.89 5.5 20 22 1023 0 16.1 24.4 35.0 91.3 80.5 275.2
07/05 21:30 10.5 71 6.89 5.5 17 20 1023 0 16.1 24.4 35.0 91.3 80.5 275.2
07/05 21:20 10.6 70 6.83 5.4 19 20 1023.1 0 15.9 24.3 34.7 90.6 79.6 272.1
07/05 21:10 10.6 69 6.74 5.2 19 20 1023.3 0 15.8 24.2 34.3 89.7 78.5 268.1
07/05 21:00 10.6 69 6.74 5.2 17 22 1023.4 0 15.8 24.2 34.3 89.7 78.5 268.1
07/05 20:50 10.7 68 6.68 5 17 22 1023.3 0 15.6 24.1 34.1 88.9 77.6 265.0
07/05 20:40 10.8 68 6.72 5.1 20 22 1023.4 0 15.7 24.1 34.2 89.2 78.0 266.5
07/05 20:30 10.8 68 6.72 5.1 22 30 1023.4 0 15.7 24.1 34.2 89.2 78.0 266.5
07/05 20:20 10.9 67 6.67 5 28 32 1023.3 0 15.6 24.0 33.9 88.6 77.3 263.9
07/05 20:10 10.8 67 6.62 4.9 22 26 1023.4 0 15.5 23.9 33.8 88.2 76.7 262.0
07/05 20:00 10.9 66 6.57 4.8 24 32 1023.4 0 15.4 23.8 33.5 87.6 76.0 259.4

Last Refresh: 08-May-2026 12:07:35

Bureau of Meteorology